Time;durP1;ratioP1;P1;durP2;ratioP2;P2;SDS_P1;SDS_P2;PMS_P1;PMS_P2;Temp;Humidity;BMP_temperature;BMP_pressure;BME280_temperature;BME280_humidity;BME280_pressure;Samples;Min_cycle;Max_cycle;Signal;HPM_P1;HPM_P2
2023/04/16 00:01:56;;;;;;;24.67;13.53;;;8.50;99.90;;;;;;5005479;28;20729;-68
2023/04/16 00:04:23;;;;;;;22.17;14.60;;;8.50;99.90;;;;;;5025985;28;20202;-68
2023/04/16 00:06:49;;;;;;;21.60;13.80;;;8.50;99.90;;;;;;5013123;28;20236;-68
2023/04/16 00:09:16;;;;;;;20.23;14.37;;;8.50;99.90;;;;;;5028454;28;20799;-68
2023/04/16 00:11:44;;;;;;;20.83;14.60;;;8.40;99.90;;;;;;4986452;28;20209;-68
2023/04/16 00:14:11;;;;;;;18.60;13.60;;;8.40;99.90;;;;;;5019225;28;20209;-68
2023/04/16 00:16:38;;;;;;;17.73;13.80;;;8.40;99.90;;;;;;5022905;28;20216;-68
2023/04/16 00:19:05;;;;;;;23.85;14.48;;;8.40;99.90;;;;;;5017458;28;20691;-68
2023/04/16 00:21:32;;;;;;;26.50;14.07;;;8.40;99.90;;;;;;5015380;28;20741;-68
2023/04/16 00:23:58;;;;;;;24.40;14.87;;;8.30;99.90;;;;;;5027558;28;20197;-68
2023/04/16 00:26:25;;;;;;;23.67;14.13;;;8.30;99.90;;;;;;4999669;28;20209;-68
2023/04/16 00:28:53;;;;;;;18.53;13.47;;;8.30;99.90;;;;;;5025055;28;20202;-68
2023/04/16 00:31:28;;;;;;;21.27;14.20;;;8.30;99.90;;;;;;5014788;28;20320;-67
2023/04/16 00:33:54;;;;;;;18.30;13.73;;;8.30;99.90;;;;;;5014421;28;20209;-68
2023/04/16 00:36:22;;;;;;;20.27;14.30;;;8.20;99.90;;;;;;5013488;28;20202;-68
2023/04/16 00:38:49;;;;;;;17.53;13.80;;;8.20;99.90;;;;;;5024477;28;20213;-68
2023/04/16 00:41:16;;;;;;;22.70;13.37;;;8.20;99.90;;;;;;4991687;28;20812;-68
2023/04/16 00:43:43;;;;;;;19.65;13.10;;;8.20;99.90;;;;;;5026638;28;20201;-68
2023/04/16 00:46:12;;;;;;;18.97;13.73;;;8.20;99.90;;;;;;5012816;28;20228;-68
2023/04/16 00:48:41;;;;;;;22.73;13.27;;;8.20;99.90;;;;;;5018430;28;20201;-68
2023/04/16 00:51:08;;;;;;;17.87;13.57;;;8.20;99.90;;;;;;5009106;28;20795;-68
2023/04/16 00:53:36;;;;;;;22.20;13.53;;;8.20;99.90;;;;;;5028596;28;20197;-68
2023/04/16 00:56:04;;;;;;;17.17;13.43;;;8.10;99.90;;;;;;5002746;28;20217;-68
2023/04/16 00:58:31;;;;;;;19.77;12.93;;;8.10;99.90;;;;;;5017096;28;20198;-68
2023/04/16 01:00:58;;;;;;;20.98;14.02;;;8.10;99.90;;;;;;5013385;28;20201;-68
2023/04/16 01:03:38;;;;;;;25.77;14.47;;;8.10;99.90;;;;;;5010082;28;20206;-68
2023/04/16 01:06:05;;;;;;;21.80;13.48;;;8.20;99.90;;;;;;5024726;28;21846;-68
2023/04/16 01:08:32;;;;;;;18.98;13.75;;;8.10;99.90;;;;;;5016146;28;20208;-68
2023/04/16 01:10:59;;;;;;;23.77;14.03;;;8.20;99.90;;;;;;5007826;28;20237;-68
2023/04/16 01:13:26;;;;;;;21.60;14.77;;;8.20;99.90;;;;;;5011941;28;20300;-68
2023/04/16 01:15:53;;;;;;;19.03;14.33;;;8.20;99.90;;;;;;5013685;28;20198;-68
2023/04/16 01:18:21;;;;;;;19.60;14.67;;;8.10;99.90;;;;;;5020679;28;20193;-68
2023/04/16 01:20:50;;;;;;;19.33;14.33;;;8.20;99.90;;;;;;5008717;28;20202;-68
2023/04/16 01:23:18;;;;;;;21.63;14.63;;;8.20;99.90;;;;;;5012571;28;20201;-68
2023/04/16 01:25:45;;;;;;;19.70;13.87;;;8.10;99.90;;;;;;5026667;28;20875;-67
2023/04/16 01:28:11;;;;;;;19.30;13.48;;;8.20;99.90;;;;;;4993278;28;20214;-67
2023/04/16 01:30:38;;;;;;;21.40;13.80;;;8.20;99.90;;;;;;5010264;28;20236;-68
2023/04/16 01:33:06;;;;;;;19.67;13.40;;;8.20;99.90;;;;;;5029086;28;20205;-68
2023/04/16 01:35:32;;;;;;;16.47;13.03;;;8.20;99.90;;;;;;5017054;28;20272;-68
2023/04/16 01:38:01;;;;;;;24.67;14.67;;;8.20;99.90;;;;;;5018131;28;20202;-67
2023/04/16 01:40:27;;;;;;;21.08;13.52;;;8.20;99.90;;;;;;5018747;28;20417;-67
2023/04/16 01:42:54;;;;;;;21.00;13.70;;;8.20;99.90;;;;;;5020241;28;20208;-68
2023/04/16 01:45:21;;;;;;;19.03;12.50;;;8.10;99.90;;;;;;4989870;28;20263;-68
2023/04/16 01:47:50;;;;;;;19.47;13.43;;;8.20;99.90;;;;;;5021315;28;20697;-68
2023/04/16 01:50:17;;;;;;;18.30;12.77;;;8.20;99.90;;;;;;5011652;28;20218;-68
2023/04/16 01:52:43;;;;;;;19.90;13.30;;;8.20;99.90;;;;;;5028371;28;20272;-68
2023/04/16 01:55:12;;;;;;;18.47;12.27;;;8.30;99.90;;;;;;5012376;28;21059;-68
2023/04/16 01:57:39;;;;;;;20.17;13.60;;;8.30;99.90;;;;;;5023235;28;20196;-68
2023/04/16 02:00:07;;;;;;;17.33;13.17;;;8.30;99.90;;;;;;4998139;28;20224;-68
2023/04/16 02:02:34;;;;;;;18.40;13.43;;;8.30;99.90;;;;;;5014135;28;20991;-68
2023/04/16 02:05:02;;;;;;;18.83;13.20;;;8.30;99.90;;;;;;5016864;28;20296;-68
2023/04/16 02:07:30;;;;;;;21.47;13.63;;;8.30;99.90;;;;;;5019337;28;20240;-68
2023/04/16 02:09:57;;;;;;;18.57;13.27;;;8.30;99.90;;;;;;5019551;28;20202;-68
2023/04/16 02:12:26;;;;;;;20.97;14.50;;;8.30;99.90;;;;;;5015197;28;20206;-67
2023/04/16 02:14:52;;;;;;;23.23;13.57;;;8.30;99.90;;;;;;4996164;28;20225;-68
2023/04/16 02:17:19;;;;;;;18.33;13.43;;;8.30;99.90;;;;;;5015328;28;20220;-67
2023/04/16 02:19:46;;;;;;;21.93;14.33;;;8.30;99.90;;;;;;5022673;28;20197;-68
2023/04/16 02:22:13;;;;;;;18.93;13.23;;;8.30;99.90;;;;;;5009464;28;20324;-68
2023/04/16 02:24:40;;;;;;;19.70;13.33;;;8.30;99.90;;;;;;5016464;28;20341;-68
2023/04/16 02:27:07;;;;;;;19.87;13.70;;;8.30;99.90;;;;;;5009418;28;20202;-68
2023/04/16 02:29:35;;;;;;;18.70;13.47;;;8.20;99.90;;;;;;4994354;28;20210;-68
2023/04/16 02:32:02;;;;;;;20.83;13.27;;;8.30;99.90;;;;;;5004661;28;20232;-68
2023/04/16 02:34:28;;;;;;;20.67;13.60;;;8.20;99.90;;;;;;5019020;28;20266;-68
2023/04/16 02:36:57;;;;;;;21.47;13.03;;;8.20;99.90;;;;;;5010787;28;20209;-68
2023/04/16 02:39:23;;;;;;;20.93;13.50;;;8.20;99.90;;;;;;5024039;28;20226;-68
2023/04/16 02:41:51;;;;;;;19.30;13.10;;;8.20;99.90;;;;;;5013711;28;21015;-68
2023/04/16 02:44:18;;;;;;;19.03;13.07;;;8.10;99.90;;;;;;5016894;28;20208;-67
2023/04/16 02:46:46;;;;;;;17.97;13.17;;;8.30;99.90;;;;;;5003451;28;20197;-68
2023/04/16 02:49:13;;;;;;;19.17;13.73;;;8.10;99.90;;;;;;5011803;28;20202;-68
2023/04/16 02:51:39;;;;;;;20.13;13.43;;;8.10;99.90;;;;;;5022167;28;20225;-68
2023/04/16 02:54:06;;;;;;;22.73;14.40;;;8.10;99.90;;;;;;5010451;28;21546;-68
2023/04/16 02:56:33;;;;;;;19.67;13.20;;;8.10;99.90;;;;;;5023378;28;20219;-68
2023/04/16 02:59:00;;;;;;;20.50;13.33;;;8.10;99.90;;;;;;5009538;28;20690;-68
2023/04/16 03:01:27;;;;;;;19.20;13.30;;;8.10;99.90;;;;;;4991312;28;20210;-68
2023/04/16 03:03:55;;;;;;;22.13;13.80;;;8.10;99.90;;;;;;5011027;28;20299;-68
2023/04/16 03:06:22;;;;;;;21.47;14.20;;;8.10;99.90;;;;;;5021238;28;20232;-68
2023/04/16 03:08:49;;;;;;;18.97;13.60;;;8.10;99.90;;;;;;5004925;28;20436;-68
2023/04/16 03:11:16;;;;;;;21.00;13.80;;;8.10;99.90;;;;;;5015905;28;20233;-68
2023/04/16 03:13:43;;;;;;;20.37;13.73;;;8.10;99.90;;;;;;5003977;28;20619;-67
2023/04/16 03:16:10;;;;;;;20.73;14.27;;;8.10;99.90;;;;;;4979457;28;20844;-68
2023/04/16 03:18:37;;;;;;;19.63;13.73;;;8.10;99.90;;;;;;5003669;28;20225;-67
2023/04/16 03:21:05;;;;;;;21.63;13.52;;;8.00;99.90;;;;;;5019626;28;20198;-68
2023/04/16 03:23:32;;;;;;;20.37;13.20;;;8.10;99.90;;;;;;5019391;28;20201;-68
2023/04/16 03:25:59;;;;;;;19.93;14.10;;;8.10;99.90;;;;;;5002150;28;20597;-67
2023/04/16 03:28:26;;;;;;;20.37;14.23;;;8.10;99.90;;;;;;5017651;28;20714;-68
2023/04/16 03:30:53;;;;;;;18.60;13.50;;;8.10;99.90;;;;;;4999057;28;20793;-67
2023/04/16 03:33:20;;;;;;;22.03;13.37;;;8.10;99.90;;;;;;4981583;28;20213;-68
2023/04/16 03:35:47;;;;;;;20.73;13.27;;;8.10;99.90;;;;;;5016561;28;21829;-68
2023/04/16 03:38:15;;;;;;;19.30;14.15;;;8.10;99.90;;;;;;5018506;28;20193;-67
2023/04/16 03:40:42;;;;;;;19.63;14.35;;;8.10;99.90;;;;;;5008032;28;20199;-68
2023/04/16 03:43:09;;;;;;;21.97;14.20;;;8.10;99.90;;;;;;5021089;28;20204;-68
2023/04/16 03:45:35;;;;;;;20.02;13.60;;;8.10;99.90;;;;;;5015181;28;20225;-68
2023/04/16 03:48:02;;;;;;;18.63;12.93;;;8.10;99.90;;;;;;4991729;28;20209;-68
2023/04/16 03:50:29;;;;;;;17.90;13.38;;;8.10;99.90;;;;;;5015020;28;20939;-68
2023/04/16 03:52:56;;;;;;;21.07;13.37;;;8.10;99.90;;;;;;5024430;28;20201;-68
2023/04/16 03:55:24;;;;;;;18.97;12.47;;;8.10;99.90;;;;;;5008011;28;20218;-68
2023/04/16 03:57:51;;;;;;;21.90;13.83;;;8.10;99.90;;;;;;5022982;28;20212;-67
2023/04/16 04:00:18;;;;;;;22.70;13.47;;;8.10;99.90;;;;;;5006934;28;20201;-67
2023/04/16 04:02:44;;;;;;;23.60;13.30;;;8.10;99.90;;;;;;4988755;28;20216;-68
2023/04/16 04:05:11;;;;;;;18.47;12.97;;;8.10;99.90;;;;;;5016609;28;20197;-67
2023/04/16 04:07:38;;;;;;;18.47;13.13;;;8.10;99.90;;;;;;5015663;28;20794;-68
2023/04/16 04:10:06;;;;;;;18.17;13.00;;;8.10;99.90;;;;;;5009497;28;20778;-68
2023/04/16 04:12:34;;;;;;;16.07;12.63;;;8.10;99.90;;;;;;5020710;28;20229;-68
2023/04/16 04:15:00;;;;;;;17.00;12.43;;;8.10;99.90;;;;;;5014485;28;20194;-68
2023/04/16 04:17:27;;;;;;;24.70;13.63;;;8.10;99.90;;;;;;5009709;28;20202;-68
2023/04/16 04:19:54;;;;;;;22.50;12.30;;;8.10;99.90;;;;;;5005125;28;20440;-68
2023/04/16 04:22:21;;;;;;;21.80;13.17;;;8.10;99.90;;;;;;5018196;28;20213;-67
2023/04/16 04:24:48;;;;;;;18.63;12.63;;;8.10;99.90;;;;;;5018198;28;20204;-67
2023/04/16 04:27:15;;;;;;;19.87;13.00;;;8.10;99.90;;;;;;5007581;28;20678;-67
2023/04/16 04:29:43;;;;;;;19.90;12.53;;;8.10;99.90;;;;;;5015959;28;20231;-68
2023/04/16 04:32:09;;;;;;;19.87;12.70;;;8.00;99.90;;;;;;5004192;28;20244;-67
2023/04/16 04:34:36;;;;;;;18.27;12.63;;;8.00;99.90;;;;;;4994817;28;20220;-68
2023/04/16 04:37:03;;;;;;;20.97;12.73;;;8.10;99.90;;;;;;4997184;28;20206;-67
2023/04/16 04:39:30;;;;;;;22.47;13.13;;;8.10;99.90;;;;;;5025180;28;20197;-67
2023/04/16 04:41:57;;;;;;;19.83;13.27;;;8.10;99.90;;;;;;5012166;28;20198;-68
2023/04/16 04:44:24;;;;;;;25.23;13.73;;;8.10;99.90;;;;;;5022418;28;20217;-67
2023/04/16 04:46:52;;;;;;;17.53;11.53;;;8.10;99.90;;;;;;5010106;28;20201;-67
2023/04/16 04:49:19;;;;;;;16.53;12.00;;;8.10;99.90;;;;;;4987764;28;20305;-68
2023/04/16 04:51:46;;;;;;;17.77;11.37;;;8.00;99.90;;;;;;5009585;28;20225;-68
2023/04/16 04:54:12;;;;;;;19.67;12.73;;;8.00;99.90;;;;;;5023622;28;20217;-67
2023/04/16 04:56:39;;;;;;;18.53;12.03;;;8.00;99.90;;;;;;5023277;28;20210;-67
2023/04/16 04:59:06;;;;;;;16.83;11.63;;;8.00;99.90;;;;;;5014956;28;20205;-67
2023/04/16 05:01:33;;;;;;;18.37;11.10;;;8.00;99.90;;;;;;5011285;28;20237;-67
2023/04/16 05:04:01;;;;;;;19.17;11.10;;;8.00;99.90;;;;;;4983854;28;20213;-68
2023/04/16 05:06:28;;;;;;;16.90;12.10;;;8.00;99.90;;;;;;5002697;28;20225;-67
2023/04/16 05:08:55;;;;;;;21.13;12.50;;;8.00;99.90;;;;;;5007613;28;20216;-68
2023/04/16 05:11:21;;;;;;;18.47;12.77;;;8.00;99.90;;;;;;5016404;28;20807;-67
2023/04/16 05:13:48;;;;;;;15.18;11.52;;;8.00;99.90;;;;;;5003703;28;20754;-68
2023/04/16 05:16:15;;;;;;;17.10;11.93;;;7.90;99.90;;;;;;5025866;28;20224;-67
2023/04/16 05:18:42;;;;;;;16.53;12.00;;;7.90;99.90;;;;;;5011256;28;20210;-68
2023/04/16 05:21:10;;;;;;;20.33;12.23;;;7.80;99.90;;;;;;4993924;28;20228;-68
2023/04/16 05:23:36;;;;;;;20.13;12.23;;;7.90;99.90;;;;;;5010203;28;20209;-67
2023/04/16 05:26:03;;;;;;;17.73;12.73;;;7.90;99.90;;;;;;5017923;28;20702;-67
2023/04/16 05:28:30;;;;;;;17.20;11.57;;;7.90;99.90;;;;;;5000146;28;20204;-68
2023/04/16 05:30:57;;;;;;;21.13;13.27;;;7.80;99.90;;;;;;5011587;28;20221;-67
2023/04/16 05:33:24;;;;;;;17.20;12.37;;;7.90;99.90;;;;;;4999285;28;20228;-67
2023/04/16 05:35:51;;;;;;;18.38;11.35;;;7.90;99.90;;;;;;4988678;28;20209;-68
2023/04/16 05:38:19;;;;;;;17.00;11.97;;;7.90;99.90;;;;;;5008703;28;20863;-68
2023/04/16 05:40:46;;;;;;;19.00;11.80;;;7.90;99.90;;;;;;5012994;28;20437;-68
2023/04/16 05:43:13;;;;;;;20.27;12.77;;;8.00;99.90;;;;;;5021678;28;20198;-67
2023/04/16 05:45:40;;;;;;;16.97;11.70;;;7.90;99.90;;;;;;5001410;28;20205;-67
2023/04/16 05:48:07;;;;;;;16.43;11.67;;;8.00;99.90;;;;;;5008287;28;20201;-68
2023/04/16 05:50:34;;;;;;;18.30;12.63;;;8.00;99.90;;;;;;5014350;28;20219;-67
2023/04/16 05:53:02;;;;;;;25.33;12.73;;;8.10;99.90;;;;;;4987297;28;20229;-67
2023/04/16 05:55:30;;;;;;;17.60;12.23;;;8.10;99.90;;;;;;5013672;28;20193;-67
2023/04/16 05:57:57;;;;;;;19.83;12.07;;;8.10;99.90;;;;;;5019749;28;20548;-68
2023/04/16 06:00:24;;;;;;;18.10;12.50;;;8.10;99.90;;;;;;5011230;28;20201;-68
2023/04/16 06:02:51;;;;;;;17.73;12.90;;;8.20;99.90;;;;;;5013156;28;20237;-67
2023/04/16 06:05:18;;;;;;;20.07;12.03;;;8.20;99.90;;;;;;5003351;28;20210;-67
2023/04/16 06:07:45;;;;;;;16.43;11.50;;;8.30;99.90;;;;;;4984657;28;20259;-68
2023/04/16 06:10:11;;;;;;;20.17;14.77;;;8.30;99.90;;;;;;5011568;28;20202;-68
2023/04/16 06:12:40;;;;;;;25.50;14.87;;;8.40;99.90;;;;;;5015017;28;20341;-67
2023/04/16 06:15:08;;;;;;;20.27;12.80;;;8.40;99.90;;;;;;5003520;28;20271;-68
2023/04/16 06:17:34;;;;;;;19.90;12.53;;;8.50;99.90;;;;;;5001484;28;20216;-68
2023/04/16 06:20:01;;;;;;;15.77;11.97;;;8.50;99.90;;;;;;5007824;28;20748;-68
2023/04/16 06:22:28;;;;;;;16.73;11.97;;;8.60;99.90;;;;;;4989450;28;20202;-68
2023/04/16 06:24:55;;;;;;;19.73;11.90;;;8.60;99.90;;;;;;5012994;28;20236;-68
2023/04/16 06:27:22;;;;;;;18.93;13.07;;;8.70;99.90;;;;;;5022266;28;20224;-68
2023/04/16 06:29:50;;;;;;;18.17;12.03;;;8.70;99.90;;;;;;5003348;28;20202;-68
2023/04/16 06:32:17;;;;;;;17.23;12.05;;;8.70;99.90;;;;;;4992064;28;20768;-68
2023/04/16 06:34:44;;;;;;;17.03;12.20;;;8.80;99.90;;;;;;5002043;28;20207;-67
2023/04/16 06:37:11;;;;;;;20.53;12.73;;;8.80;99.90;;;;;;5017438;28;20905;-67
2023/04/16 06:39:38;;;;;;;18.97;13.17;;;8.80;99.90;;;;;;4988059;28;20212;-68
2023/04/16 06:42:05;;;;;;;21.50;12.50;;;8.80;99.90;;;;;;5019950;28;20209;-67
2023/04/16 06:44:31;;;;;;;20.50;12.93;;;8.90;99.90;;;;;;5023549;28;20197;-67
2023/04/16 06:47:00;;;;;;;18.07;12.23;;;8.90;99.90;;;;;;5019204;28;20711;-68
2023/04/16 06:49:26;;;;;;;20.00;12.50;;;8.90;99.90;;;;;;5001879;28;20622;-68
2023/04/16 06:51:53;;;;;;;20.07;12.37;;;8.90;99.90;;;;;;4996530;28;20225;-67
2023/04/16 06:54:20;;;;;;;20.93;13.17;;;9.00;99.90;;;;;;4988589;28;20209;-67
2023/04/16 06:56:47;;;;;;;22.40;12.48;;;9.00;99.90;;;;;;5007617;28;20206;-68
2023/04/16 06:59:14;;;;;;;17.87;11.33;;;9.00;99.90;;;;;;5014402;28;20222;-67
2023/04/16 07:01:41;;;;;;;21.73;13.15;;;9.10;99.90;;;;;;5009435;28;20382;-67
2023/04/16 07:04:09;;;;;;;18.43;13.37;;;9.10;99.90;;;;;;4998788;28;20197;-68
2023/04/16 07:06:36;;;;;;;16.90;11.67;;;9.10;99.90;;;;;;4981367;28;20679;-68
2023/04/16 07:09:03;;;;;;;18.67;11.67;;;9.10;99.90;;;;;;4979782;28;20205;-68
2023/04/16 07:11:30;;;;;;;17.80;12.87;;;9.20;99.90;;;;;;4997308;28;20213;-68
2023/04/16 07:13:57;;;;;;;18.73;12.00;;;9.20;99.90;;;;;;5010062;28;20236;-68
2023/04/16 07:16:24;;;;;;;21.13;12.90;;;9.20;99.90;;;;;;5005508;28;20316;-67
2023/04/16 07:18:51;;;;;;;21.13;12.00;;;9.20;99.90;;;;;;4980958;28;20658;-67
2023/04/16 07:21:19;;;;;;;17.03;12.43;;;9.30;99.90;;;;;;4995117;28;21724;-67
2023/04/16 07:23:46;;;;;;;17.80;12.50;;;9.30;99.90;;;;;;4984235;28;20382;-67
2023/04/16 07:26:13;;;;;;;24.87;12.67;;;9.30;99.90;;;;;;5017737;28;20255;-68
2023/04/16 07:28:40;;;;;;;19.90;12.30;;;9.40;99.90;;;;;;5002314;28;21664;-67
2023/04/16 07:31:07;;;;;;;18.53;12.73;;;9.40;99.90;;;;;;4994121;28;20209;-68
2023/04/16 07:33:34;;;;;;;20.30;12.73;;;9.40;98.80;;;;;;4992420;28;20218;-67
2023/04/16 07:36:00;;;;;;;19.67;12.02;;;9.50;98.50;;;;;;4992937;28;20205;-68
2023/04/16 07:38:29;;;;;;;16.05;11.52;;;9.50;99.20;;;;;;5018061;28;20204;-67
2023/04/16 07:40:56;;;;;;;18.90;11.70;;;9.60;99.90;;;;;;4973105;28;20217;-68
2023/04/16 07:43:23;;;;;;;18.23;12.38;;;9.60;98.60;;;;;;5001902;28;20955;-67
2023/04/16 07:45:49;;;;;;;18.10;12.45;;;9.60;96.10;;;;;;4991309;28;20218;-68
2023/04/16 07:48:16;;;;;;;18.52;12.02;;;9.60;95.60;;;;;;5017822;28;20202;-67
2023/04/16 07:50:43;;;;;;;22.75;12.48;;;9.60;95.70;;;;;;5003093;28;20446;-67
2023/04/16 07:53:10;;;;;;;20.83;12.50;;;9.70;96.50;;;;;;5004222;28;20228;-67
2023/04/16 07:55:38;;;;;;;18.55;11.85;;;9.70;96.00;;;;;;4964822;28;20408;-68
2023/04/16 07:58:06;;;;;;;20.95;11.90;;;9.70;97.00;;;;;;5002156;28;20728;-67
2023/04/16 08:00:33;;;;;;;17.00;11.30;;;9.80;97.10;;;;;;4998906;28;20754;-68
2023/04/16 08:03:00;;;;;;;19.33;12.38;;;9.80;94.20;;;;;;4984968;28;20633;-67
2023/04/16 08:05:27;;;;;;;20.83;11.90;;;9.80;91.40;;;;;;4993534;28;20208;-68
2023/04/16 08:07:53;;;;;;;19.70;12.57;;;9.80;88.40;;;;;;4998687;28;20583;-67
2023/04/16 08:10:20;;;;;;;17.30;12.15;;;9.80;89.80;;;;;;4981297;28;21229;-68
2023/04/16 08:12:48;;;;;;;19.80;12.45;;;9.80;90.40;;;;;;5000377;28;20237;-67
2023/04/16 08:15:15;;;;;;;17.42;12.40;;;9.90;90.80;;;;;;4998512;28;20794;-67
2023/04/16 08:17:42;;;;;;;16.08;11.18;;;9.90;90.20;;;;;;4997950;28;20206;-67
2023/04/16 08:20:09;;;;;;;17.25;11.88;;;9.90;90.50;;;;;;5001956;28;20213;-68
2023/04/16 08:22:36;;;;;;;21.98;12.75;;;10.00;90.70;;;;;;5009337;28;20809;-67
2023/04/16 08:25:03;;;;;;;19.33;12.65;;;10.00;87.40;;;;;;4987920;28;20198;-68
2023/04/16 08:27:30;;;;;;;20.35;11.07;;;10.00;87.20;;;;;;4967467;28;20710;-68
2023/04/16 08:29:58;;;;;;;21.05;12.20;;;10.00;88.10;;;;;;5001164;28;20573;-67
2023/04/16 08:32:26;;;;;;;22.40;12.15;;;10.10;82.50;;;;;;4988841;28;20593;-67
2023/04/16 08:34:53;;;;;;;25.85;12.73;;;10.20;78.00;;;;;;4991646;28;20545;-68
2023/04/16 08:37:19;;;;;;;19.73;12.52;;;10.20;76.70;;;;;;5018534;28;20212;-68
2023/04/16 08:39:46;;;;;;;18.02;12.05;;;10.20;76.90;;;;;;4994617;28;20322;-67
2023/04/16 08:42:21;;;;;;;14.60;11.00;;;10.30;74.90;;;;;;4956525;28;20214;-68
2023/04/16 08:44:52;;;;;;;15.35;11.35;;;10.30;67.90;;;;;;4993526;28;20224;-67
2023/04/16 08:47:25;;;;;;;18.50;11.52;;;10.30;59.80;;;;;;5005690;28;20982;-67
2023/04/16 08:49:55;;;;;;;18.20;11.85;;;10.30;67.80;;;;;;4996884;28;20677;-67
2023/04/16 08:52:25;;;;;;;18.20;10.77;;;10.40;61.70;;;;;;5019908;28;20225;-67
2023/04/16 08:55:00;;;;;;;18.77;11.77;;;10.40;64.30;;;;;;5001771;28;20201;-68
2023/04/16 08:57:34;;;;;;;16.00;11.80;;;10.50;57.80;;;;;;4989107;28;20213;-68
2023/04/16 09:00:01;;;;;;;18.02;11.70;;;10.50;53.40;;;;;;4992668;28;20585;-67
2023/04/16 09:02:30;;;;;;;15.93;11.75;;;10.50;60.30;;;;;;5014526;28;20341;-67
2023/04/16 09:05:00;;;;;;;21.02;12.32;;;10.60;60.80;;;;;;4998577;28;20209;-67
2023/04/16 09:07:28;;;;;;;17.92;11.68;;;10.60;53.40;;;;;;5011062;28;20671;-67
2023/04/16 09:09:57;;;;;;;16.17;11.90;;;10.70;51.00;;;;;;5002077;28;20617;-67
2023/04/16 09:12:24;;;;;;;20.77;14.82;;;10.70;53.90;;;;;;4985195;28;20213;-68
2023/04/16 09:14:51;;;;;;;15.60;11.52;;;10.70;52.30;;;;;;4995746;28;20198;-67
2023/04/16 09:17:18;;;;;;;17.17;12.30;;;10.80;55.80;;;;;;5006688;28;20224;-67
2023/04/16 09:19:47;;;;;;;20.83;11.88;;;10.80;54.80;;;;;;5015500;28;20209;-67
2023/04/16 09:22:13;;;;;;;15.50;11.30;;;10.80;56.20;;;;;;5007810;28;20217;-67
2023/04/16 09:24:40;;;;;;;20.95;12.25;;;10.90;54.50;;;;;;5001565;28;20205;-67
2023/04/16 09:27:08;;;;;;;30.05;16.80;;;10.90;47.30;;;;;;5013086;28;20225;-67
2023/04/16 09:29:36;;;;;;;28.38;15.82;;;10.90;50.40;;;;;;4989317;28;20233;-67
2023/04/16 09:32:04;;;;;;;17.67;11.30;;;11.00;52.00;;;;;;5011702;28;20232;-67
2023/04/16 09:34:32;;;;;;;16.23;11.43;;;11.00;41.30;;;;;;5017269;28;20234;-67
2023/04/16 09:37:15;;;;;;;39.10;24.63;;;11.10;49.00;;;;;;5000280;28;20248;-67
2023/04/16 09:39:42;;;;;;;19.13;13.60;;;11.10;50.30;;;;;;4998276;28;20234;-67
2023/04/16 09:42:09;;;;;;;15.15;11.27;;;11.10;35.70;;;;;;5015914;28;20197;-67
2023/04/16 09:44:37;;;;;;;24.20;13.45;;;11.10;24.40;;;;;;4978036;28;20240;-67
2023/04/16 09:47:06;;;;;;;30.95;19.83;;;11.10;24.00;;;;;;4992949;28;20294;-67
2023/04/16 09:49:35;;;;;;;23.73;15.18;;;11.10;29.50;;;;;;4986164;28;20224;-67
2023/04/16 09:52:02;;;;;;;22.08;12.82;;;11.10;23.30;;;;;;4976678;28;20740;-67
2023/04/16 09:54:30;;;;;;;14.88;11.73;;;11.10;23.70;;;;;;5000945;28;20851;-66
2023/04/16 09:56:57;;;;;;;16.38;10.98;;;11.20;33.10;;;;;;4989260;28;20225;-67
2023/04/16 09:59:24;;;;;;;16.67;10.93;;;11.20;19.80;;;;;;4979982;28;20367;-67
2023/04/16 10:01:52;;;;;;;13.25;10.38;;;11.20;20.80;;;;;;4992216;28;20686;-66
2023/04/16 10:04:19;;;;;;;16.98;11.25;;;11.30;14.80;;;;;;5001634;28;21133;-67
2023/04/16 10:07:03;;;;;;;20.77;11.65;;;11.30;19.90;;;;;;5002062;28;20234;-67
2023/04/16 10:09:37;;;;;;;15.57;10.93;;;11.40;31.50;;;;;;4996241;28;20488;-67
2023/04/16 10:12:03;;;;;;;15.27;10.85;;;11.40;27.10;;;;;;5003431;28;20260;-67
2023/04/16 10:14:30;;;;;;;14.15;10.45;;;11.40;25.90;;;;;;4981631;28;21428;-67
2023/04/16 10:16:58;;;;;;;14.68;10.60;;;11.50;19.70;;;;;;5004060;28;20325;-67
2023/04/16 10:19:25;;;;;;;15.60;10.98;;;11.50;14.60;;;;;;5014868;28;20392;-66
2023/04/16 10:21:52;;;;;;;14.90;10.93;;;11.60;16.00;;;;;;5003725;28;20221;-66
2023/04/16 10:24:19;;;;;;;16.42;12.30;;;11.60;17.70;;;;;;4991434;28;20228;-66
2023/04/16 10:26:50;;;;;;;19.27;13.18;;;11.60;19.30;;;;;;4988389;28;20287;-66
2023/04/16 10:29:17;;;;;;;16.50;11.80;;;11.60;21.70;;;;;;5000910;28;20964;-66
2023/04/16 10:31:44;;;;;;;14.57;11.27;;;11.70;26.80;;;;;;4974656;28;20699;-67
2023/04/16 10:34:11;;;;;;;21.60;18.33;;;11.70;22.00;;;;;;4981932;28;20229;-67
2023/04/16 10:36:39;;;;;;;15.95;10.90;;;11.80;27.00;;;;;;4995899;28;20808;-67
2023/04/16 10:39:11;;;;;;;14.10;10.70;;;11.80;24.70;;;;;;5003181;28;20294;-67
2023/04/16 10:41:38;;;;;;;18.58;11.32;;;11.80;14.30;;;;;;5011403;28;20478;-66
2023/04/16 10:44:08;;;;;;;14.13;9.98;;;11.80;1.00;;;;;;5002839;28;20209;-66
2023/04/16 10:46:38;;;;;;;15.85;11.30;;;11.80;1.00;;;;;;4984967;28;20601;-66
2023/04/16 10:49:15;;;;;;;17.30;10.95;;;11.90;5.40;;;;;;4995596;28;20297;-66
2023/04/16 10:51:42;;;;;;;19.05;14.20;;;12.00;15.70;;;;;;4995306;28;20893;-67
2023/04/16 10:54:25;;;;;;;14.88;11.77;;;12.10;16.30;;;;;;4999773;28;20225;-66
2023/04/16 10:56:53;;;;;;;16.23;11.25;;;12.10;1.00;;;;;;5005304;28;20646;-66
2023/04/16 10:59:23;;;;;;;15.50;11.40;;;12.10;1.00;;;;;;5003657;28;20680;-67
2023/04/16 11:01:52;;;;;;;16.77;11.23;;;12.20;8.50;;;;;;4985585;28;20201;-67
2023/04/16 11:04:42;;;;;;;17.90;12.13;;;12.20;1.00;;;;;;4978809;28;20975;-66
2023/04/16 11:07:17;;;;;;;17.15;11.07;;;12.20;1.00;;;;;;4995751;28;20836;-67
2023/04/16 11:09:46;;;;;;;17.60;11.68;;;12.20;1.00;;;;;;4996684;28;20229;-67
2023/04/16 11:12:14;;;;;;;15.43;11.68;;;12.20;1.00;;;;;;5013719;28;20217;-67
2023/04/16 11:14:42;;;;;;;17.65;11.68;;;12.20;1.00;;;;;;4968659;28;20225;-67
2023/04/16 11:17:09;;;;;;;15.85;11.65;;;12.20;1.00;;;;;;4988463;28;20988;-67
2023/04/16 11:19:36;;;;;;;15.35;11.38;;;12.20;1.00;;;;;;4971383;28;20592;-65
2023/04/16 11:22:04;;;;;;;17.75;11.95;;;12.30;1.00;;;;;;4974663;28;20206;-66
2023/04/16 11:24:31;;;;;;;17.90;11.50;;;12.40;1.00;;;;;;4986971;28;20248;-67
2023/04/16 11:26:57;;;;;;;12.95;10.45;;;12.30;1.00;;;;;;4962821;28;20925;-66
2023/04/16 11:29:24;;;;;;;15.93;11.18;;;12.40;1.00;;;;;;4983029;28;20208;-67
2023/04/16 11:31:53;;;;;;;14.00;10.38;;;12.30;1.00;;;;;;4997615;28;20214;-67
2023/04/16 11:34:20;;;;;;;15.00;10.15;;;12.30;1.00;;;;;;4971611;28;20711;-66
2023/04/16 11:36:49;;;;;;;16.88;11.32;;;12.40;1.00;;;;;;4989613;28;20205;-67
2023/04/16 11:39:16;;;;;;;15.20;10.73;;;12.40;1.00;;;;;;4988481;28;21259;-66
2023/04/16 11:41:43;;;;;;;17.55;10.52;;;12.50;1.00;;;;;;4978044;28;20229;-66
2023/04/16 11:44:18;;;;;;;15.48;10.77;;;12.50;1.00;;;;;;5031333;22;20239;-66
2023/04/16 11:46:45;;;;;;;12.70;9.80;;;12.40;1.00;;;;;;5049922;28;20964;-66
2023/04/16 11:49:13;;;;;;;15.57;9.80;;;12.40;1.00;;;;;;5042512;28;20238;-66
2023/04/16 11:51:40;;;;;;;13.82;9.13;;;12.40;1.00;;;;;;5053698;28;20226;-66
2023/04/16 11:54:08;;;;;;;12.88;8.93;;;12.50;1.00;;;;;;5041511;28;23959;-66
2023/04/16 11:56:36;;;;;;;15.63;9.98;;;12.40;1.00;;;;;;5047985;28;20231;-66
2023/04/16 11:59:09;;;;;;;12.60;9.65;;;12.50;1.00;;;;;;5055475;28;20902;-66
2023/04/16 12:01:38;;;;;;;18.27;9.60;;;12.50;1.00;;;;;;5047371;28;20365;-66
2023/04/16 12:04:05;;;;;;;11.43;9.23;;;12.50;1.00;;;;;;5076760;28;20264;-66
2023/04/16 12:06:33;;;;;;;15.65;9.27;;;12.50;1.00;;;;;;5009746;22;20886;-66
2023/04/16 12:09:00;;;;;;;12.52;9.30;;;12.50;1.00;;;;;;5032786;28;20425;-66
2023/04/16 12:11:40;;;;;;;14.25;10.02;;;12.60;1.00;;;;;;5027078;28;20821;-66
2023/04/16 12:14:08;;;;;;;16.38;10.38;;;12.60;1.00;;;;;;5007385;28;20221;-66
2023/04/16 12:16:34;;;;;;;14.05;10.00;;;12.60;1.00;;;;;;5029795;28;20197;-66
2023/04/16 12:19:02;;;;;;;12.30;9.15;;;12.70;1.00;;;;;;5038056;28;20275;-66
2023/04/16 12:21:41;;;;;;;12.65;9.60;;;12.80;1.00;;;;;;5006947;28;20646;-66
2023/04/16 12:24:11;;;;;;;16.08;9.90;;;12.80;1.00;;;;;;5023379;28;20201;-66
2023/04/16 12:26:43;;;;;;;16.10;10.60;;;12.80;1.00;;;;;;5038577;28;20673;-66
2023/04/16 12:29:18;;;;;;;14.18;10.07;;;12.70;1.00;;;;;;5008171;28;20224;-66
2023/04/16 12:31:45;;;;;;;12.73;9.73;;;12.70;1.00;;;;;;5024742;28;20200;-66
2023/04/16 12:34:13;;;;;;;16.13;9.00;;;12.70;1.00;;;;;;5026497;28;20342;-66
2023/04/16 12:36:42;;;;;;;12.38;9.02;;;12.60;1.00;;;;;;5001141;28;20320;-66
2023/04/16 12:39:10;;;;;;;11.40;9.52;;;12.60;1.00;;;;;;5026283;28;20220;-66